Time;durP1;ratioP1;P1;durP2;ratioP2;P2;SDS_P1;SDS_P2;PMS_P1;PMS_P2;Temp;Humidity;BMP_temperature;BMP_pressure;BME280_temperature;BME280_humidity;BME280_pressure;Samples;Min_cycle;Max_cycle;Signal;HPM_P1;HPM_P2
2022/09/22 00:01:25;;;;;;;1.60;1.27;;;;;;;;;;5029501;28;20099;-67
2022/09/22 00:03:56;;;;;;;1.58;1.10;;;;;;;;;;5031548;28;20045;-68
2022/09/22 00:06:29;;;;;;;1.40;1.20;;;;;;;;;;5030433;28;20035;-67
2022/09/22 00:08:59;;;;;;;1.20;1.08;;;;;;;;;;5033275;28;20053;-67
2022/09/22 00:11:29;;;;;;;3.05;1.60;;;;;;;;;;5033800;28;20041;-68
2022/09/22 00:14:07;;;;;;;5.13;2.22;;;;;;;;;;5034522;28;20042;-67
2022/09/22 00:16:33;;;;;;;6.07;2.47;;;;;;;;;;5033331;28;20038;-67
2022/09/22 00:18:59;;;;;;;4.95;2.33;;;;;;;;;;5035071;28;20125;-68
2022/09/22 00:21:29;;;;;;;5.88;2.70;;;;;;;;;;5033679;28;20511;-68
2022/09/22 00:23:56;;;;;;;4.78;2.53;;;;;;;;;;5057972;22;20070;-63
2022/09/22 00:26:23;;;;;;;4.82;2.97;;;;;;;;;;5072176;28;20039;-64
2022/09/22 00:28:50;;;;;;;4.45;2.78;;;;;;;;;;5070564;28;20098;-63
2022/09/22 00:31:19;;;;;;;3.65;3.00;;;;;;;;;;5071979;28;20545;-65
2022/09/22 00:33:45;;;;;;;3.47;2.50;;;;;;;;;;5074746;28;20097;-65
2022/09/22 00:36:12;;;;;;;2.15;1.90;;;;;;;;;;5073430;28;20048;-65
2022/09/22 00:38:39;;;;;;;4.47;2.80;;;;;;;;;;5070177;28;20042;-64
2022/09/22 00:41:07;;;;;;;6.20;3.00;;;;;;;;;;5064851;28;20029;-65
2022/09/22 00:43:35;;;;;;;4.57;3.30;;;;;;;;;;5073634;28;20119;-65
2022/09/22 00:46:07;;;;;;;4.22;3.28;;;;;;;;;;5073225;28;20044;-64
2022/09/22 00:48:36;;;;;;;5.28;3.00;;;;;;;;;;5068846;28;20080;-64
2022/09/22 00:51:03;;;;;;;3.53;2.70;;;;;;;;;;5073598;28;20044;-65
2022/09/22 00:53:30;;;;;;;3.42;2.85;;;;;;;;;;5073730;28;20064;-64
2022/09/22 00:56:05;;;;;;;5.18;2.80;;;;;;;;;;5073275;28;20041;-64
2022/09/22 00:58:33;;;;;;;2.92;2.63;;;;;;;;;;5073050;28;20033;-64
2022/09/22 01:00:59;;;;;;;4.15;2.33;;;;;;;;;;5074110;28;20083;-62
2022/09/22 01:03:26;;;;;;;3.60;2.35;;;;;;;;;;5071529;28;20494;-62
2022/09/22 01:05:54;;;;;;;4.07;1.88;;;;;;;;;;5073689;28;20046;-62
2022/09/22 01:08:21;;;;;;;4.13;1.40;;;;;;;;;;5073037;28;20037;-62
2022/09/22 01:10:48;;;;;;;3.33;1.40;;;;;;;;;;5072784;28;20040;-63
2022/09/22 01:13:33;;;;;;;2.10;1.60;;;;;;;;;;5072197;28;20502;-63
2022/09/22 01:15:59;;;;;;;1.88;1.00;;;;;;;;;;5056401;28;20060;-63
2022/09/22 01:18:27;;;;;;;0.80;0.52;;;;;;;;;;5073288;28;20079;-63
2022/09/22 01:20:53;;;;;;;1.95;0.70;;;;;;;;;;5071172;28;20036;-63
2022/09/22 01:23:38;;;;;;;2.58;2.20;;;;;;;;;;5072567;28;20047;-63
2022/09/22 01:26:19;;;;;;;3.05;1.95;;;;;;;;;;5072200;28;20044;-63
2022/09/22 01:28:45;;;;;;;1.27;1.10;;;;;;;;;;5072136;28;20052;-63
2022/09/22 01:31:17;;;;;;;1.52;1.00;;;;;;;;;;5069385;28;20160;-63
2022/09/22 01:33:47;;;;;;;2.75;1.70;;;;;;;;;;5072678;28;20040;-63
2022/09/22 01:36:17;;;;;;;2.92;2.03;;;;;;;;;;5071021;28;20033;-63
2022/09/22 01:38:43;;;;;;;4.72;2.67;;;;;;;;;;5072134;28;20040;-63
2022/09/22 01:41:34;;;;;;;5.18;2.63;;;;;;;;;;5071091;28;20040;-63
2022/09/22 01:44:03;;;;;;;2.55;1.92;;;;;;;;;;5081627;28;20048;-63
2022/09/22 01:46:31;;;;;;;2.05;1.63;;;;;;;;;;5064621;28;20040;-63
2022/09/22 01:48:59;;;;;;;3.53;2.38;;;;;;;;;;5073173;28;20040;-63
2022/09/22 01:51:29;;;;;;;2.67;2.15;;;;;;;;;;5072270;28;20043;-63
2022/09/22 01:54:00;;;;;;;2.65;2.05;;;;;;;;;;5070511;28;20494;-63
2022/09/22 01:56:28;;;;;;;2.35;1.30;;;;;;;;;;5071062;28;20049;-63
2022/09/22 01:58:57;;;;;;;2.90;1.60;;;;;;;;;;5073110;28;20040;-63
2022/09/22 02:01:25;;;;;;;4.18;1.80;;;;;;;;;;5071749;28;20032;-63
2022/09/22 02:04:03;;;;;;;5.47;2.10;;;;;;;;;;5083617;28;20047;-63
2022/09/22 02:06:29;;;;;;;4.07;2.10;;;;;;;;;;5067833;28;20040;-63
2022/09/22 02:09:04;;;;;;;2.45;2.25;;;;;;;;;;5072353;28;20119;-63
2022/09/22 02:11:30;;;;;;;3.47;2.50;;;;;;;;;;5071018;28;20037;-63
2022/09/22 02:13:56;;;;;;;3.47;2.72;;;;;;;;;;5069806;28;20497;-63
2022/09/22 02:16:23;;;;;;;4.28;2.50;;;;;;;;;;5070694;28;20047;-63
2022/09/22 02:18:51;;;;;;;4.00;3.08;;;;;;;;;;5072411;28;20040;-63
2022/09/22 02:21:18;;;;;;;4.40;3.35;;;;;;;;;;5071211;28;20480;-63
2022/09/22 02:23:44;;;;;;;6.68;3.17;;;;;;;;;;5070320;28;20501;-63
2022/09/22 02:26:11;;;;;;;4.93;3.25;;;;;;;;;;5071751;28;20083;-63
2022/09/22 02:28:38;;;;;;;6.97;3.70;;;;;;;;;;5066022;28;20037;-63
2022/09/22 02:31:05;;;;;;;6.05;3.90;;;;;;;;;;5065350;28;20476;-63
2022/09/22 02:33:34;;;;;;;4.90;4.15;;;;;;;;;;5072285;28;20038;-64
2022/09/22 02:36:11;;;;;;;4.93;3.30;;;;;;;;;;5070029;28;20082;-63
2022/09/22 02:38:53;;;;;;;6.50;3.80;;;;;;;;;;5070746;28;20070;-63
2022/09/22 02:41:27;;;;;;;4.53;3.60;;;;;;;;;;5070959;28;20090;-63
2022/09/22 02:43:53;;;;;;;4.65;3.50;;;;;;;;;;5068600;28;20082;-63
2022/09/22 02:46:24;;;;;;;8.43;3.72;;;;;;;;;;5070858;28;20040;-63
2022/09/22 02:48:58;;;;;;;5.70;3.40;;;;;;;;;;5071412;28;20554;-63
2022/09/22 02:51:24;;;;;;;5.20;3.55;;;;;;;;;;5068216;28;20075;-63
2022/09/22 02:53:51;;;;;;;4.30;3.40;;;;;;;;;;5072168;28;20101;-64
2022/09/22 02:56:17;;;;;;;5.28;3.47;;;;;;;;;;5071536;28;20093;-63
2022/09/22 02:58:43;;;;;;;4.13;3.55;;;;;;;;;;5065856;28;20048;-63
2022/09/22 03:01:09;;;;;;;3.90;3.30;;;;;;;;;;5063441;28;20033;-63
2022/09/22 03:03:35;;;;;;;5.45;3.33;;;;;;;;;;5071995;28;20036;-63
2022/09/22 03:06:01;;;;;;;4.13;3.30;;;;;;;;;;5070816;28;20138;-63
2022/09/22 03:08:27;;;;;;;6.53;3.70;;;;;;;;;;5070748;28;20110;-63
2022/09/22 03:10:53;;;;;;;5.20;3.10;;;;;;;;;;5067023;28;20040;-63
2022/09/22 03:13:19;;;;;;;4.50;2.80;;;;;;;;;;5071564;28;20404;-63
2022/09/22 03:15:46;;;;;;;5.30;2.90;;;;;;;;;;5071096;28;20455;-63
2022/09/22 03:18:12;;;;;;;3.60;3.13;;;;;;;;;;5069692;28;20568;-63
2022/09/22 03:20:38;;;;;;;3.63;3.10;;;;;;;;;;5065489;28;20045;-63
2022/09/22 03:23:04;;;;;;;5.30;3.20;;;;;;;;;;5069529;28;20035;-63
2022/09/22 03:25:30;;;;;;;5.15;3.05;;;;;;;;;;5065398;28;20036;-63
2022/09/22 03:27:56;;;;;;;5.70;3.70;;;;;;;;;;5071685;28;20124;-63
2022/09/22 03:30:22;;;;;;;3.78;3.25;;;;;;;;;;5070153;28;20143;-63
2022/09/22 03:32:48;;;;;;;4.78;3.38;;;;;;;;;;5069711;28;20048;-63
2022/09/22 03:35:15;;;;;;;3.70;2.80;;;;;;;;;;5070184;28;20094;-63
2022/09/22 03:37:41;;;;;;;3.65;3.05;;;;;;;;;;5068953;28;20036;-63
2022/09/22 03:40:07;;;;;;;3.40;3.10;;;;;;;;;;5069457;28;20045;-63
2022/09/22 03:42:36;;;;;;;4.93;3.33;;;;;;;;;;5071275;28;20051;-63
2022/09/22 03:45:03;;;;;;;3.35;3.08;;;;;;;;;;5070467;28;20079;-64
2022/09/22 03:47:29;;;;;;;4.93;3.03;;;;;;;;;;5068103;28;20059;-64
2022/09/22 03:49:55;;;;;;;6.50;3.17;;;;;;;;;;5070190;28;20497;-64
2022/09/22 03:52:21;;;;;;;3.30;3.00;;;;;;;;;;5067962;28;20051;-64
2022/09/22 03:54:47;;;;;;;3.40;2.97;;;;;;;;;;5066863;28;20378;-63
2022/09/22 03:57:13;;;;;;;3.72;3.10;;;;;;;;;;5069226;28;20123;-64
2022/09/22 03:59:39;;;;;;;4.22;3.17;;;;;;;;;;5070776;28;20076;-63
2022/09/22 04:02:05;;;;;;;3.53;3.22;;;;;;;;;;5067147;28;20044;-64
2022/09/22 04:04:31;;;;;;;4.05;3.65;;;;;;;;;;5071479;28;20463;-64
2022/09/22 04:06:58;;;;;;;2.78;2.50;;;;;;;;;;5072145;28;20123;-64
2022/09/22 04:09:24;;;;;;;2.78;2.20;;;;;;;;;;5070479;28;20040;-64
2022/09/22 04:11:50;;;;;;;3.13;1.58;;;;;;;;;;5067022;28;20119;-64
2022/09/22 04:14:16;;;;;;;2.47;1.35;;;;;;;;;;5069576;28;20549;-64
2022/09/22 04:16:42;;;;;;;1.35;0.98;;;;;;;;;;5065304;28;20041;-64
2022/09/22 04:19:08;;;;;;;3.08;1.67;;;;;;;;;;5066498;28;20044;-64
2022/09/22 04:21:34;;;;;;;1.30;0.80;;;;;;;;;;5061969;28;20048;-64
2022/09/22 04:24:01;;;;;;;1.25;0.98;;;;;;;;;;5061942;28;20040;-64
2022/09/22 04:26:27;;;;;;;1.08;0.98;;;;;;;;;;5071220;28;20072;-64
2022/09/22 04:28:53;;;;;;;2.20;2.00;;;;;;;;;;5069663;28;20083;-64
2022/09/22 04:31:19;;;;;;;2.58;1.40;;;;;;;;;;5069536;28;20043;-64
2022/09/22 04:33:45;;;;;;;2.28;1.50;;;;;;;;;;5070600;28;20049;-63
2022/09/22 04:36:11;;;;;;;2.10;1.90;;;;;;;;;;5070656;28;20041;-64
2022/09/22 04:38:37;;;;;;;2.45;2.25;;;;;;;;;;5069098;28;20040;-63
2022/09/22 04:41:03;;;;;;;3.10;2.65;;;;;;;;;;5068801;28;20386;-64
2022/09/22 04:43:29;;;;;;;4.25;3.38;;;;;;;;;;5071060;28;20040;-64
2022/09/22 04:45:55;;;;;;;5.28;4.47;;;;;;;;;;5071092;28;20036;-64
2022/09/22 04:48:21;;;;;;;5.50;4.90;;;;;;;;;;5061383;28;20036;-64
2022/09/22 04:50:47;;;;;;;5.93;4.32;;;;;;;;;;5067203;28;20040;-64
2022/09/22 04:53:13;;;;;;;3.65;3.35;;;;;;;;;;5071953;28;20044;-64
2022/09/22 04:55:39;;;;;;;4.70;3.72;;;;;;;;;;5074107;28;20519;-64
2022/09/22 04:58:06;;;;;;;4.35;3.13;;;;;;;;;;5072275;28;20079;-63
2022/09/22 05:00:33;;;;;;;4.05;2.80;;;;;;;;;;5064636;28;20044;-64
2022/09/22 05:03:00;;;;;;;1.90;1.63;;;;;;;;;;5073770;28;20547;-64
2022/09/22 05:05:27;;;;;;;1.67;1.38;;;;;;;;;;5075096;28;20037;-64
2022/09/22 05:07:53;;;;;;;2.55;2.10;;;;;;;;;;5073309;28;20035;-63
2022/09/22 05:10:20;;;;;;;4.88;2.20;;;;;;;;;;5061807;28;20047;-64
2022/09/22 05:12:47;;;;;;;2.33;2.13;;;;;;;;;;5071883;28;20128;-64
2022/09/22 05:15:14;;;;;;;2.10;1.90;;;;;;;;;;5073180;28;20052;-64
2022/09/22 05:17:50;;;;;;;3.25;2.78;;;;;;;;;;5071253;28;20040;-64
2022/09/22 05:20:16;;;;;;;3.20;2.92;;;;;;;;;;5072710;28;20440;-64
2022/09/22 05:22:42;;;;;;;3.65;3.35;;;;;;;;;;5073380;28;20037;-64
2022/09/22 05:25:12;;;;;;;4.00;3.60;;;;;;;;;;5072781;28;20064;-64
2022/09/22 05:27:48;;;;;;;5.75;4.40;;;;;;;;;;5072983;28;20119;-64
2022/09/22 05:30:15;;;;;;;5.35;4.25;;;;;;;;;;5061507;28;20044;-64
2022/09/22 05:32:42;;;;;;;5.22;4.10;;;;;;;;;;5067333;28;20040;-64
2022/09/22 05:35:09;;;;;;;2.70;2.50;;;;;;;;;;5067463;28;20048;-64
2022/09/22 05:37:35;;;;;;;4.30;2.05;;;;;;;;;;5071426;28;20087;-63
2022/09/22 05:40:01;;;;;;;2.13;1.80;;;;;;;;;;5070955;28;20513;-64
2022/09/22 05:42:27;;;;;;;3.45;2.30;;;;;;;;;;5070239;28;20509;-64
2022/09/22 05:44:53;;;;;;;3.63;2.63;;;;;;;;;;5070972;28;20071;-64
2022/09/22 05:47:19;;;;;;;3.70;3.40;;;;;;;;;;5071700;28;20040;-64
2022/09/22 05:49:45;;;;;;;5.40;4.30;;;;;;;;;;5073306;28;20045;-64
2022/09/22 05:52:11;;;;;;;7.50;4.65;;;;;;;;;;5072331;28;20041;-64
2022/09/22 05:54:37;;;;;;;3.78;2.92;;;;;;;;;;5067587;28;20386;-64
2022/09/22 05:57:03;;;;;;;3.55;2.95;;;;;;;;;;5064483;28;20052;-64
2022/09/22 05:59:29;;;;;;;4.55;4.15;;;;;;;;;;5072937;28;20446;-64
2022/09/22 06:01:55;;;;;;;4.40;4.00;;;;;;;;;;5072698;28;20151;-63
2022/09/22 06:04:21;;;;;;;5.15;4.65;;;;;;;;;;5070176;28;20039;-63
2022/09/22 06:06:47;;;;;;;5.13;4.47;;;;;;;;;;5073298;28;20399;-64
2022/09/22 06:09:13;;;;;;;6.28;5.55;;;;;;;;;;5073156;28;20041;-64
2022/09/22 06:11:39;;;;;;;6.82;5.03;;;;;;;;;;5069632;28;20457;-63
2022/09/22 06:14:05;;;;;;;4.82;4.30;;;;;;;;;;5068297;28;20098;-64
2022/09/22 06:16:31;;;;;;;5.72;5.05;;;;;;;;;;5068514;28;20406;-64
2022/09/22 06:18:57;;;;;;;5.88;5.32;;;;;;;;;;5063853;28;20055;-64
2022/09/22 06:21:24;;;;;;;5.05;4.60;;;;;;;;;;5066153;28;20040;-64
2022/09/22 06:26:19;;;;;;;6.28;5.68;;;;;;;;;;5032601;28;20059;-66
2022/09/22 06:28:45;;;;;;;7.32;5.55;;;;;;;;;;5033819;28;20044;-66
2022/09/22 06:31:13;;;;;;;6.03;5.45;;;;;;;;;;5047030;28;20116;-66
2022/09/22 06:33:45;;;;;;;5.80;5.30;;;;;;;;;;5042739;28;20049;-66
2022/09/22 06:36:11;;;;;;;8.25;6.95;;;;;;;;;;5029609;28;20041;-66
2022/09/22 06:38:37;;;;;;;9.90;7.88;;;;;;;;;;5030473;28;20507;-66
2022/09/22 06:41:06;;;;;;;11.25;7.70;;;;;;;;;;5030869;28;20106;-66
2022/09/22 06:43:36;;;;;;;10.32;8.45;;;;;;;;;;5027159;28;20459;-66
2022/09/22 06:46:02;;;;;;;13.15;9.65;;;;;;;;;;5024347;28;20045;-66
2022/09/22 06:48:29;;;;;;;12.07;9.90;;;;;;;;;;5031317;28;20465;-66
2022/09/22 06:50:55;;;;;;;12.43;9.73;;;;;;;;;;5031207;28;20517;-66
2022/09/22 06:53:22;;;;;;;11.55;10.13;;;;;;;;;;5023572;28;20034;-66
2022/09/22 06:55:48;;;;;;;13.82;10.48;;;;;;;;;;5030758;28;20496;-67
2022/09/22 06:58:14;;;;;;;15.70;12.00;;;;;;;;;;5030221;28;20086;-66
2022/09/22 07:00:42;;;;;;;19.80;12.27;;;;;;;;;;5030814;28;20049;-66
2022/09/22 07:03:18;;;;;;;17.08;12.07;;;;;;;;;;5023367;28;20512;-66
2022/09/22 07:05:52;;;;;;;20.90;13.00;;;;;;;;;;5012428;28;20050;-66
2022/09/22 07:08:18;;;;;;;17.10;12.48;;;;;;;;;;5028958;28;20471;-66
2022/09/22 07:10:44;;;;;;;17.38;12.88;;;;;;;;;;5025922;28;20115;-66
2022/09/22 07:13:10;;;;;;;16.90;12.70;;;;;;;;;;5039317;28;20123;-66
2022/09/22 07:15:36;;;;;;;14.25;12.25;;;;;;;;;;5034478;28;20048;-67
2022/09/22 07:18:03;;;;;;;16.90;12.80;;;;;;;;;;5008462;28;20488;-67
2022/09/22 07:20:30;;;;;;;16.23;12.88;;;;;;;;;;5027070;28;20052;-67
2022/09/22 07:22:59;;;;;;;16.08;12.60;;;;;;;;;;5039375;28;20068;-67
2022/09/22 07:25:26;;;;;;;15.35;12.85;;;;;;;;;;5036301;28;20069;-67
2022/09/22 07:27:53;;;;;;;16.27;12.40;;;;;;;;;;5031796;28;20037;-67
2022/09/22 07:30:25;;;;;;;13.98;11.63;;;;;;;;;;5033730;28;20598;-66
2022/09/22 07:32:51;;;;;;;15.93;12.00;;;;;;;;;;5038212;28;20045;-67
2022/09/22 07:35:17;;;;;;;13.25;10.80;;;;;;;;;;5027138;28;20037;-66
2022/09/22 07:37:45;;;;;;;17.25;12.23;;;;;;;;;;5011847;28;20051;-66
2022/09/22 07:40:11;;;;;;;15.80;11.55;;;;;;;;;;5007987;28;20056;-66
2022/09/22 07:42:37;;;;;;;14.52;11.30;;;;;;;;;;5016579;28;20033;-66
2022/09/22 07:45:12;;;;;;;16.95;12.02;;;;;;;;;;5039685;28;20039;-66
2022/09/22 07:50:23;;;;;;;15.65;11.38;;;;;;;;;;5027720;28;20480;-66
2022/09/22 07:52:55;;;;;;;15.85;11.73;;;;;;;;;;5027632;28;20503;-66
2022/09/22 07:55:23;;;;;;;18.38;11.50;;;;;;;;;;5020769;28;20561;-66
2022/09/22 07:57:53;;;;;;;13.48;10.48;;;;;;;;;;5026002;28;20049;-66
2022/09/22 08:00:20;;;;;;;11.67;10.40;;;;;;;;;;5031000;28;20041;-66
2022/09/22 08:02:53;;;;;;;11.85;9.77;;;;;;;;;;5026616;28;20132;-66
2022/09/22 08:05:19;;;;;;;13.20;9.80;;;;;;;;;;5010983;28;20440;-66
2022/09/22 08:07:45;;;;;;;12.98;10.27;;;;;;;;;;5024344;28;20065;-65
2022/09/22 08:10:12;;;;;;;13.88;10.07;;;;;;;;;;5030080;28;20053;-66
2022/09/22 08:12:38;;;;;;;14.30;10.00;;;;;;;;;;5030651;28;20049;-66
2022/09/22 08:15:05;;;;;;;13.30;9.43;;;;;;;;;;5031202;28;20052;-66
2022/09/22 08:17:31;;;;;;;13.48;9.00;;;;;;;;;;5029863;28;20117;-66
2022/09/22 08:19:58;;;;;;;10.55;8.10;;;;;;;;;;5031165;28;20658;-66
2022/09/22 08:22:24;;;;;;;10.52;7.93;;;;;;;;;;5030242;28;20046;-66
2022/09/22 08:24:50;;;;;;;10.02;6.78;;;;;;;;;;5031020;28;20038;-66
2022/09/22 08:27:17;;;;;;;8.98;6.78;;;;;;;;;;5030925;28;20116;-66
2022/09/22 08:29:44;;;;;;;7.22;5.70;;;;;;;;;;5035194;28;20076;-66
2022/09/22 08:32:10;;;;;;;8.30;5.45;;;;;;;;;;5034287;28;20128;-66
2022/09/22 08:34:36;;;;;;;8.18;4.97;;;;;;;;;;5034907;28;20116;-66
2022/09/22 08:37:02;;;;;;;7.15;5.07;;;;;;;;;;5032803;28;20033;-66
2022/09/22 08:39:29;;;;;;;7.55;5.13;;;;;;;;;;5033479;28;20041;-66
2022/09/22 08:42:08;;;;;;;7.85;5.80;;;;;;;;;;5033906;28;20052;-67
2022/09/22 08:44:40;;;;;;;10.20;5.57;;;;;;;;;;5026797;28;20049;-66
2022/09/22 08:47:11;;;;;;;7.50;4.93;;;;;;;;;;5033406;28;20033;-66
2022/09/22 08:52:24;;;;;;;7.82;5.30;;;;;;;;;;5033208;28;20049;-66
2022/09/22 08:54:50;;;;;;;9.48;5.18;;;;;;;;;;5034624;28;20037;-66
2022/09/22 08:57:20;;;;;;;7.47;5.07;;;;;;;;;;5033870;28;20120;-67
2022/09/22 08:59:52;;;;;;;8.77;4.60;;;;;;;;;;5034380;28;20518;-66
2022/09/22 09:02:36;;;;;;;8.15;4.75;;;;;;;;;;5034295;28;20068;-66
2022/09/22 09:05:03;;;;;;;8.38;4.82;;;;;;;;;;5034765;28;20045;-66
2022/09/22 09:07:42;;;;;;;10.65;5.13;;;;;;;;;;5033140;28;20099;-66
2022/09/22 09:10:27;;;;;;;7.50;4.20;;;;;;;;;;5033396;28;20095;-66
2022/09/22 09:13:05;;;;;;;5.45;3.90;;;;;;;;;;5020677;28;20079;-67
2022/09/22 09:15:41;;;;;;;6.72;4.40;;;;;;;;;;5034346;28;20057;-66
2022/09/22 09:18:14;;;;;;;5.20;4.05;;;;;;;;;;5033598;28;20048;-67
2022/09/22 09:20:44;;;;;;;8.48;4.70;;;;;;;;;;5033327;28;20046;-66
2022/09/22 09:23:14;;;;;;;7.95;4.45;;;;;;;;;;5034092;28;20044;-67
2022/09/22 09:25:42;;;;;;;9.40;4.53;;;;;;;;;;5033243;28;20099;-67
2022/09/22 09:28:13;;;;;;;6.85;4.25;;;;;;;;;;5033135;28;20103;-66
2022/09/22 09:30:45;;;;;;;8.23;4.40;;;;;;;;;;5033149;28;20388;-66
2022/09/22 09:33:11;;;;;;;;;;;;;;;;;;5033812;28;20052;-67
2022/09/22 09:35:46;;;;;;;7.28;4.18;;;;;;;;;;5016094;28;19983;-66
2022/09/22 09:38:15;;;;;;;6.70;4.07;;;;;;;;;;5033247;28;20050;-67
2022/09/22 09:40:41;;;;;;;8.93;4.10;;;;;;;;;;5032156;28;20068;-67
2022/09/22 09:43:07;;;;;;;6.60;4.60;;;;;;;;;;5033352;28;20529;-67
2022/09/22 09:45:36;;;;;;;6.57;3.92;;;;;;;;;;5033748;28;20041;-66
2022/09/22 09:48:02;;;;;;;6.30;4.03;;;;;;;;;;5032790;28;20469;-67
2022/09/22 09:50:30;;;;;;;6.72;4.30;;;;;;;;;;5032423;28;20045;-67
2022/09/22 09:52:58;;;;;;;7.38;4.55;;;;;;;;;;5032648;28;20052;-67
2022/09/22 09:55:24;;;;;;;7.50;4.30;;;;;;;;;;5033669;28;20050;-66
2022/09/22 10:00:30;;;;;;;6.88;4.05;;;;;;;;;;5032365;28;20041;-67
2022/09/22 10:01:03;;;;;;;7.03;4.25;;;;;;;;;;5032812;28;20558;-67
2022/09/22 10:03:30;;;;;;;7.10;4.30;;;;;;;;;;5033000;28;20053;-66
2022/09/22 10:06:01;;;;;;;8.25;4.10;;;;;;;;;;5031950;28;20582;-66
2022/09/22 10:08:30;;;;;;;7.13;3.75;;;;;;;;;;5032244;28;20045;-67
2022/09/22 10:10:58;;;;;;;5.35;3.10;;;;;;;;;;5032557;28;20503;-67
2022/09/22 10:13:27;;;;;;;4.68;2.58;;;;;;;;;;5032681;28;20041;-66
2022/09/22 10:16:01;;;;;;;7.10;3.20;;;;;;;;;;5032849;28;20041;-67
2022/09/22 10:18:32;;;;;;;7.90;2.97;;;;;;;;;;5032248;28;20042;-67
2022/09/22 10:21:02;;;;;;;7.68;3.42;;;;;;;;;;5032532;28;20068;-67
2022/09/22 10:23:31;;;;;;;8.02;3.53;;;;;;;;;;5032590;28;20111;-66
2022/09/22 10:26:17;;;;;;;7.50;3.67;;;;;;;;;;5032539;28;20037;-66
2022/09/22 10:28:49;;;;;;;8.70;3.50;;;;;;;;;;5031758;28;20072;-67
2022/09/22 10:31:25;;;;;;;6.53;3.50;;;;;;;;;;5031545;28;20052;-67
2022/09/22 10:33:55;;;;;;;6.05;2.53;;;;;;;;;;5032645;28;20402;-66
2022/09/22 10:36:24;;;;;;;4.90;2.50;;;;;;;;;;5032624;28;20033;-67
2022/09/22 10:38:51;;;;;;;6.97;3.13;;;;;;;;;;5031561;28;20052;-67
2022/09/22 10:41:26;;;;;;;4.85;2.97;;;;;;;;;;5032126;28;20077;-67
2022/09/22 10:43:54;;;;;;;4.00;2.75;;;;;;;;;;5031707;28;20045;-67
2022/09/22 10:46:38;;;;;;;5.95;3.25;;;;;;;;;;5032691;28;20116;-67
2022/09/22 10:49:07;;;;;;;3.97;2.97;;;;;;;;;;5031517;28;20067;-67
2022/09/22 10:51:53;;;;;;;6.97;3.08;;;;;;;;;;5032429;28;20053;-67
2022/09/22 10:54:25;;;;;;;5.68;3.53;;;;;;;;;;5030321;28;20119;-67
2022/09/22 10:56:54;;;;;;;7.28;3.47;;;;;;;;;;5032383;28;20095;-67
2022/09/22 10:59:31;;;;;;;6.05;3.00;;;;;;;;;;5031653;28;20091;-66
2022/09/22 11:02:09;;;;;;;5.15;3.47;;;;;;;;;;5031288;28;20047;-67
2022/09/22 11:04:41;;;;;;;7.38;3.78;;;;;;;;;;5012478;28;20773;-67
2022/09/22 11:13:12;;;;;;;7.40;4.78;;;;;;;;;;5028427;28;20045;-67
2022/09/22 11:15:56;;;;;;;7.18;5.32;;;;;;;;;;5011943;28;20046;-67
2022/09/22 11:18:41;;;;;;;8.15;5.32;;;;;;;;;;5012223;28;20077;-67
2022/09/22 11:21:33;;;;;;;9.45;5.72;;;;;;;;;;5019787;28;20064;-67
2022/09/22 11:24:04;;;;;;;9.10;4.93;;;;;;;;;;5008540;28;20545;-67
2022/09/22 11:26:56;;;;;;;8.32;4.78;;;;;;;;;;5031989;28;20055;-67
2022/09/22 11:29:25;;;;;;;6.53;5.00;;;;;;;;;;5009677;28;20513;-67
2022/09/22 11:32:02;;;;;;;6.68;5.35;;;;;;;;;;5012374;28;20037;-67
2022/09/22 11:34:38;;;;;;;8.60;5.78;;;;;;;;;;5027875;28;20053;-67
2022/09/22 11:37:24;;;;;;;10.35;5.53;;;;;;;;;;5032005;28;20047;-66
2022/09/22 11:40:09;;;;;;;8.27;5.72;;;;;;;;;;5031610;28;20100;-67
2022/09/22 11:42:41;;;;;;;8.93;5.35;;;;;;;;;;5020276;28;20042;-66
2022/09/22 11:45:14;;;;;;;10.52;5.30;;;;;;;;;;5011833;28;20034;-67
2022/09/22 11:47:40;;;;;;;8.20;5.50;;;;;;;;;;5020621;28;20041;-67
2022/09/22 11:50:18;;;;;;;9.02;5.55;;;;;;;;;;5030221;28;20042;-67
2022/09/22 11:52:50;;;;;;;9.93;5.72;;;;;;;;;;5031762;28;20085;-67
2022/09/22 11:55:23;;;;;;;9.55;5.03;;;;;;;;;;5031146;28;20049;-67
2022/09/22 11:57:51;;;;;;;8.57;4.93;;;;;;;;;;5031849;28;20041;-67
2022/09/22 12:00:19;;;;;;;9.75;5.70;;;;;;;;;;5030479;28;20045;-66
2022/09/22 12:02:45;;;;;;;7.43;5.25;;;;;;;;;;5033249;28;20045;-67
2022/09/22 12:05:27;;;;;;;8.40;4.13;;;;;;;;;;5035440;28;20120;-67
2022/09/22 12:07:58;;;;;;;5.03;3.63;;;;;;;;;;5035448;28;20117;-67
2022/09/22 12:10:44;;;;;;;8.52;3.47;;;;;;;;;;5035314;28;20045;-67
2022/09/22 12:13:12;;;;;;;5.47;3.33;;;;;;;;;;5035698;28;20107;-66
2022/09/22 12:15:57;;;;;;;7.38;3.97;;;;;;;;;;5034476;28;20116;-67
2022/09/22 12:18:46;;;;;;;9.27;4.28;;;;;;;;;;5034312;28;20464;-67
2022/09/22 12:21:38;;;;;;;6.63;3.80;;;;;;;;;;5015710;28;20061;-66
2022/09/22 12:26:44;;;;;;;4.78;3.45;;;;;;;;;;5049387;28;20091;-64
2022/09/22 12:29:13;;;;;;;4.30;3.30;;;;;;;;;;5052862;28;20495;-64
2022/09/22 12:31:39;;;;;;;9.15;3.83;;;;;;;;;;5053680;28;20045;-64
2022/09/22 12:34:14;;;;;;;8.45;4.40;;;;;;;;;;5054638;28;20043;-64
2022/09/22 12:36:41;;;;;;;8.65;3.67;;;;;;;;;;5015907;28;21464;-64
2022/09/22 12:39:18;;;;;;;6.43;3.40;;;;;;;;;;5034042;28;20124;-64
2022/09/22 12:41:46;;;;;;;7.93;3.70;;;;;;;;;;5015236;28;20045;-64
2022/09/22 12:44:13;;;;;;;10.10;3.80;;;;;;;;;;5014940;28;20084;-64
2022/09/22 12:46:41;;;;;;;9.77;4.10;;;;;;;;;;5017954;28;20042;-64
2022/09/22 12:49:09;;;;;;;7.05;3.50;;;;;;;;;;5034097;28;20049;-64
2022/09/22 12:51:35;;;;;;;8.02;3.40;;;;;;;;;;5033073;28;20045;-64
2022/09/22 12:54:20;;;;;;;5.53;3.65;;;;;;;;;;5034789;28;20360;-64
2022/09/22 12:56:53;;;;;;;8.82;4.25;;;;;;;;;;5035022;28;20038;-64
2022/09/22 12:59:37;;;;;;;6.25;3.30;;;;;;;;;;5033778;28;20486;-65
2022/09/22 13:02:16;;;;;;;6.65;3.88;;;;;;;;;;5030614;28;20073;-64
2022/09/22 13:04:42;;;;;;;4.18;3.20;;;;;;;;;;5026758;28;20519;-63
2022/09/22 13:07:26;;;;;;;9.35;4.60;;;;;;;;;;5032670;28;20033;-63
2022/09/22 13:10:11;;;;;;;5.70;3.70;;;;;;;;;;5033871;28;20045;-64
2022/09/22 13:12:37;;;;;;;9.50;4.47;;;;;;;;;;5034432;28;20072;-64
2022/09/22 13:15:06;;;;;;;7.82;3.90;;;;;;;;;;5032195;28;20041;-64
2022/09/22 13:17:37;;;;;;;6.00;3.20;;;;;;;;;;5032834;28;20052;-64
2022/09/22 13:20:15;;;;;;;5.03;3.55;;;;;;;;;;5034071;28;20125;-64
2022/09/22 13:22:41;;;;;;;5.00;3.50;;;;;;;;;;5033113;28;20034;-64
2022/09/22 13:25:34;;;;;;;6.13;3.53;;;;;;;;;;5028844;28;20793;-63
2022/09/22 13:28:05;;;;;;;9.20;3.70;;;;;;;;;;5026911;28;20050;-63
2022/09/22 13:30:31;;;;;;;6.38;4.00;;;;;;;;;;5037023;28;20052;-63
2022/09/22 13:32:57;;;;;;;6.78;3.63;;;;;;;;;;5027556;28;20076;-63
2022/09/22 13:35:24;;;;;;;5.38;4.00;;;;;;;;;;5032689;28;20496;-64
2022/09/22 13:37:52;;;;;;;5.75;3.92;;;;;;;;;;5034198;28;20495;-64
2022/09/22 13:40:19;;;;;;;6.07;3.90;;;;;;;;;;5034039;28;20045;-64
2022/09/22 13:42:45;;;;;;;6.22;3.90;;;;;;;;;;5031528;28;20483;-64
2022/09/22 13:45:22;;;;;;;3.67;3.17;;;;;;;;;;5025656;28;20033;-64
2022/09/22 13:47:49;;;;;;;7.05;4.00;;;;;;;;;;5025318;28;20045;-63
2022/09/22 13:50:20;;;;;;;6.30;3.35;;;;;;;;;;5032630;28;20403;-64
2022/09/22 13:52:47;;;;;;;;;;;;;;;;;;5041665;28;20135;-64
2022/09/22 13:55:31;;;;;;;8.45;3.90;;;;;;;;;;5033523;28;20055;-63
2022/09/22 13:58:01;;;;;;;7.57;4.22;;;;;;;;;;5031753;28;20140;-64
2022/09/22 14:00:48;;;;;;;10.18;3.30;;;;;;;;;;5032161;28;20096;-64
2022/09/22 14:03:19;;;;;;;5.68;2.83;;;;;;;;;;5030682;28;20124;-64
2022/09/22 14:05:45;;;;;;;;;;;;;;;;;;5032812;28;20073;-64
2022/09/22 14:08:13;;;;;;;4.68;2.80;;;;;;;;;;5031840;28;20350;-64
2022/09/22 14:10:40;;;;;;;5.05;2.72;;;;;;;;;;5029964;28;20071;-64
2022/09/22 14:13:26;;;;;;;3.47;2.50;;;;;;;;;;5022941;28;20052;-64
2022/09/22 14:15:53;;;;;;;5.05;2.65;;;;;;;;;;5032112;28;20048;-64
2022/09/22 14:18:25;;;;;;;3.65;2.85;;;;;;;;;;5033177;28;20510;-63
2022/09/22 14:20:52;;;;;;;6.30;2.88;;;;;;;;;;5031612;28;20042;-63
2022/09/22 14:23:44;;;;;;;6.28;2.70;;;;;;;;;;5031953;28;20048;-64
2022/09/22 14:26:32;;;;;;;6.72;2.88;;;;;;;;;;5027516;28;20103;-64
2022/09/22 14:28:59;;;;;;;6.63;3.28;;;;;;;;;;5024064;28;20364;-64
2022/09/22 14:31:27;;;;;;;5.45;2.60;;;;;;;;;;5032272;28;20109;-64
2022/09/22 14:33:54;;;;;;;4.72;2.50;;;;;;;;;;5028533;28;20120;-64
2022/09/22 14:36:22;;;;;;;6.45;3.22;;;;;;;;;;5027785;28;20056;-64
2022/09/22 14:38:49;;;;;;;6.00;3.65;;;;;;;;;;5030835;28;20049;-64
2022/09/22 14:41:23;;;;;;;4.00;2.40;;;;;;;;;;5027292;28;20037;-63
2022/09/22 14:43:49;;;;;;;3.55;2.63;;;;;;;;;;5030698;28;20060;-64
2022/09/22 14:46:21;;;;;;;4.50;2.58;;;;;;;;;;5032276;28;20450;-64
2022/09/22 14:48:47;;;;;;;3.67;2.35;;;;;;;;;;5013178;28;20049;-64
2022/09/22 14:51:15;;;;;;;5.30;2.35;;;;;;;;;;5028925;28;20053;-64
2022/09/22 14:53:47;;;;;;;8.05;2.95;;;;;;;;;;5029373;28;20550;-64
2022/09/22 14:56:26;;;;;;;3.90;2.00;;;;;;;;;;5032233;28;20442;-64
2022/09/22 14:58:53;;;;;;;5.35;2.53;;;;;;;;;;5031007;28;20046;-64
2022/09/22 15:04:25;;;;;;;7.28;2.50;;;;;;;;;;5032500;28;20117;-64
2022/09/22 15:06:55;;;;;;;3.83;2.15;;;;;;;;;;5021519;28;20041;-64
2022/09/22 15:09:41;;;;;;;4.83;1.80;;;;;;;;;;5029612;28;20049;-64
2022/09/22 15:12:30;;;;;;;6.35;2.28;;;;;;;;;;5032283;28;20041;-64
2022/09/22 15:15:00;;;;;;;6.32;2.38;;;;;;;;;;5031469;28;20300;-64
2022/09/22 15:20:45;;;;;;;4.20;2.13;;;;;;;;;;5027895;28;20041;-64